Time;durP1;ratioP1;P1;durP2;ratioP2;P2;SDS_P1;SDS_P2;PMS_P1;PMS_P2;Temp;Humidity;BMP_temperature;BMP_pressure;BME280_temperature;BME280_humidity;BME280_pressure;Samples;Min_cycle;Max_cycle;Signal;HPM_P1;HPM_P2
2020/12/06 00:00:20;;;;;;;21.25;9.65;;;;;;;-2.00;72.50;101082.20;1661066;86;21679;-72
2020/12/06 00:02:47;;;;;;;20.72;10.32;;;;;;;-2.04;72.25;101088.25;1662551;85;21611;-72
2020/12/06 00:05:14;;;;;;;16.93;8.93;;;;;;;-2.11;71.95;101096.89;1685830;85;21352;-72
2020/12/06 00:07:42;;;;;;;16.50;10.40;;;;;;;-2.13;72.16;101097.75;1676392;85;21186;-73
2020/12/06 00:10:11;;;;;;;20.12;11.28;;;;;;;-2.21;72.22;101092.50;1656464;86;21773;-72
2020/12/06 00:12:38;;;;;;;18.67;9.95;;;;;;;-2.24;71.73;101091.20;1696342;84;21207;-72
2020/12/06 00:15:08;;;;;;;20.05;10.18;;;;;;;-2.25;72.13;101090.36;1714427;84;21158;-72
2020/12/06 00:17:35;;;;;;;18.00;8.93;;;;;;;-2.28;71.77;101082.99;1704801;84;21171;-72
2020/12/06 00:20:07;;;;;;;19.23;9.58;;;;;;;-2.31;71.77;101085.99;1714275;84;21202;-72
2020/12/06 00:22:34;;;;;;;18.57;9.30;;;;;;;-2.38;71.27;101096.33;1700884;84;21175;-73
2020/12/06 00:25:03;;;;;;;18.50;9.50;;;;;;;-2.41;71.51;101094.59;1714439;84;21186;-72
2020/12/06 00:27:33;;;;;;;18.60;9.68;;;;;;;-2.46;71.65;101093.70;1704822;84;21611;-73
2020/12/06 00:30:01;;;;;;;21.15;10.03;;;;;;;-2.51;71.54;101102.73;1698709;83;21162;-73
2020/12/06 00:32:29;;;;;;;18.92;9.53;;;;;;;-2.55;71.70;101103.58;1680083;84;21179;-72
2020/12/06 00:34:57;;;;;;;19.87;10.10;;;;;;;-2.59;71.72;101103.14;1714198;84;21202;-72
2020/12/06 00:37:24;;;;;;;19.95;9.25;;;;;;;-2.58;71.74;101110.05;1704781;84;21214;-73
2020/12/06 00:39:51;;;;;;;17.50;10.20;;;;;;;-2.59;71.54;101105.73;1714506;84;21300;-72
2020/12/06 00:42:18;;;;;;;18.87;9.78;;;;;;;-2.60;71.53;101096.66;1704789;84;22587;-72
2020/12/06 00:44:46;;;;;;;19.23;9.45;;;;;;;-2.65;71.44;101091.44;1686210;84;21296;-72
2020/12/06 00:47:13;;;;;;;20.45;10.08;;;;;;;-2.69;71.40;101088.41;1676367;85;21135;-72
2020/12/06 00:49:40;;;;;;;19.87;9.98;;;;;;;-2.71;71.17;101093.58;1685829;85;21192;-73
2020/12/06 00:52:07;;;;;;;19.85;9.33;;;;;;;-2.78;71.29;101092.24;1685592;85;21669;-72
2020/12/06 00:54:36;;;;;;;16.52;9.18;;;;;;;-2.98;70.87;101069.66;1710328;84;21716;-71
2020/12/06 00:57:03;;;;;;;16.07;8.85;;;;;;;-2.87;71.20;101083.55;1716338;83;21186;-72
2020/12/06 00:59:31;;;;;;;18.37;9.18;;;;;;;-2.84;70.93;101092.64;1724889;83;21142;-71
2020/12/06 01:01:59;;;;;;;19.27;9.43;;;;;;;-2.91;70.89;101097.33;1725021;83;21296;-71
2020/12/06 01:04:27;;;;;;;18.27;8.65;;;;;;;-2.90;70.97;101083.54;1702585;83;21288;-71
2020/12/06 01:06:57;;;;;;;16.17;8.35;;;;;;;-2.96;70.99;101088.67;1696081;84;21344;-71
2020/12/06 01:09:24;;;;;;;17.73;8.80;;;;;;;-2.94;71.10;101093.44;1653980;84;21173;-71
2020/12/06 01:11:51;;;;;;;21.45;10.03;;;;;;;-3.02;70.85;101078.27;1696132;84;21154;-72
2020/12/06 01:14:18;;;;;;;20.70;9.70;;;;;;;-3.02;70.62;101088.21;1687464;84;21737;-71
2020/12/06 01:16:50;;;;;;;18.00;8.98;;;;;;;-3.06;70.76;101091.61;1724743;83;21324;-72
2020/12/06 01:19:18;;;;;;;21.20;9.50;;;;;;;-3.08;70.86;101088.57;1724918;83;21288;-72
2020/12/06 01:21:51;;;;;;;18.37;8.75;;;;;;;-3.13;70.52;101089.41;1696005;84;21150;-72
2020/12/06 01:24:19;;;;;;;18.52;8.50;;;;;;;-3.18;70.37;101084.63;1690501;84;21659;-71
2020/12/06 01:26:49;;;;;;;18.05;9.40;;;;;;;-3.20;70.28;101088.91;1673342;86;21194;-71
2020/12/06 01:29:16;;;;;;;18.23;8.20;;;;;;;-3.26;70.28;101085.02;1673590;86;21789;-72
2020/12/06 01:31:49;;;;;;;17.37;8.80;;;;;;;-3.27;70.24;101083.27;1673911;84;21285;-71
2020/12/06 01:34:16;;;;;;;19.30;9.20;;;;;;;-3.32;70.29;101086.25;1673510;86;21805;-72
2020/12/06 01:36:44;;;;;;;18.42;10.10;;;;;;;-3.40;70.50;101086.59;1673464;86;21190;-71
2020/12/06 01:39:12;;;;;;;18.92;8.25;;;;;;;-3.41;70.32;101085.74;1673346;86;21348;-71
2020/12/06 01:41:39;;;;;;;15.65;8.18;;;;;;;-3.42;70.38;101088.33;1673501;86;21297;-71
2020/12/06 01:44:06;;;;;;;19.52;8.75;;;;;;;-3.48;70.29;101090.00;1701375;84;21345;-71
2020/12/06 01:46:36;;;;;;;17.45;8.38;;;;;;;-3.47;70.35;101096.03;1701482;84;21345;-71
2020/12/06 01:49:07;;;;;;;16.97;8.53;;;;;;;-3.54;70.40;101092.53;1701500;84;21194;-71
2020/12/06 01:51:34;;;;;;;18.20;8.70;;;;;;;-3.51;70.35;101087.37;1685309;84;21612;-71
2020/12/06 01:54:04;;;;;;;17.02;8.58;;;;;;;-3.56;70.29;101095.52;1675568;84;21191;-71
2020/12/06 01:56:31;;;;;;;15.30;8.25;;;;;;;-3.55;69.99;101091.23;1673347;86;21326;-72
2020/12/06 01:58:58;;;;;;;14.85;8.35;;;;;;;-3.55;70.13;101084.77;1661277;85;21715;-71
2020/12/06 02:01:26;;;;;;;18.07;8.75;;;;;;;-3.59;69.66;101096.80;1659273;86;21314;-72
2020/12/06 02:03:54;;;;;;;13.48;7.90;;;;;;;-3.57;69.93;101093.77;1660071;85;21325;-71
2020/12/06 02:06:21;;;;;;;17.62;8.53;;;;;;;-3.58;70.08;101106.29;1659868;85;21183;-71
2020/12/06 02:08:49;;;;;;;18.23;8.78;;;;;;;-3.55;69.89;101092.52;1656780;86;21332;-71
2020/12/06 02:11:30;;;;;;;15.30;7.35;;;;;;;-3.59;70.12;101099.38;1676585;85;21181;-71
2020/12/06 02:13:58;;;;;;;13.98;7.50;;;;;;;-3.61;70.06;101088.14;1671115;85;21222;-71
2020/12/06 02:16:27;;;;;;;17.77;8.75;;;;;;;-3.64;70.10;101088.13;1704588;84;21187;-71
2020/12/06 02:18:54;;;;;;;14.93;8.23;;;;;;;-3.69;69.94;101096.27;1714371;84;21154;-71
2020/12/06 02:21:21;;;;;;;18.10;8.40;;;;;;;-3.69;70.25;101097.55;1705048;84;21186;-72
2020/12/06 02:23:48;;;;;;;15.72;7.62;;;;;;;-3.74;70.23;101094.06;1698561;83;21182;-72
2020/12/06 02:26:16;;;;;;;16.62;7.95;;;;;;;-3.75;70.09;101096.20;1676674;85;21627;-71
2020/12/06 02:28:43;;;;;;;19.87;8.83;;;;;;;-3.83;70.42;101100.85;1685860;85;21202;-71
2020/12/06 02:31:11;;;;;;;14.28;7.45;;;;;;;-3.89;70.43;101094.32;1686086;85;21320;-72
2020/12/06 02:33:38;;;;;;;16.27;8.28;;;;;;;-3.89;70.44;101098.64;1687838;84;21601;-71
2020/12/06 02:36:06;;;;;;;15.85;8.00;;;;;;;-3.98;70.18;101104.56;1685930;85;21154;-72
2020/12/06 02:38:35;;;;;;;17.75;8.30;;;;;;;-4.01;70.17;101103.25;1685724;85;21639;-71
2020/12/06 02:41:02;;;;;;;16.05;7.62;;;;;;;-4.05;70.41;101095.89;1686016;85;21587;-72
2020/12/06 02:43:40;;;;;;;13.78;7.87;;;;;;;-4.04;70.38;101101.91;1815766;79;23038;-71
2020/12/06 02:46:08;;;;;;;14.95;7.78;;;;;;;-4.09;70.44;101102.28;1787438;80;21269;-71
2020/12/06 02:48:35;;;;;;;16.00;6.65;;;;;;;-4.12;70.64;101098.83;1787369;80;21304;-70
2020/12/06 02:51:04;;;;;;;13.98;7.62;;;;;;;-4.15;70.67;101109.55;1786833;80;21162;-70
2020/12/06 02:53:32;;;;;;;13.85;7.72;;;;;;;-4.12;70.73;101106.58;1779190;80;21288;-70
2020/12/06 02:55:59;;;;;;;15.93;8.25;;;;;;;-4.12;70.66;101107.87;1759677;80;21292;-71
2020/12/06 02:58:27;;;;;;;13.88;7.83;;;;;;;-4.07;70.59;101108.34;1756533;82;21336;-71
2020/12/06 03:00:54;;;;;;;16.73;7.97;;;;;;;-4.08;70.68;101106.61;1756386;82;21306;-71
2020/12/06 03:03:22;;;;;;;16.32;7.62;;;;;;;-4.04;70.39;101105.38;1741905;82;21323;-71
2020/12/06 03:05:49;;;;;;;15.15;7.87;;;;;;;-4.04;70.32;101107.08;1729000;83;21284;-70
2020/12/06 03:08:16;;;;;;;14.47;7.95;;;;;;;-4.04;70.25;101105.78;1729213;83;21762;-71
2020/12/06 03:10:44;;;;;;;13.15;6.95;;;;;;;-4.00;69.76;101111.45;1729035;83;21157;-71
2020/12/06 03:13:11;;;;;;;14.50;7.33;;;;;;;-4.08;69.79;101107.45;1731260;82;21119;-70
2020/12/06 03:15:38;;;;;;;17.80;8.28;;;;;;;-4.05;69.60;101116.97;1756662;82;21309;-71
2020/12/06 03:18:05;;;;;;;13.72;8.05;;;;;;;-4.11;69.58;101112.61;1756596;82;21689;-72
2020/12/06 03:20:33;;;;;;;12.28;6.97;;;;;;;-4.07;69.64;101108.34;1752868;81;21150;-72
2020/12/06 03:23:00;;;;;;;15.40;7.42;;;;;;;-4.16;69.71;101117.70;1736656;82;21161;-72
2020/12/06 03:25:28;;;;;;;14.90;7.78;;;;;;;-4.14;69.38;101121.19;1756244;82;21167;-71
2020/12/06 03:27:56;;;;;;;15.70;6.80;;;;;;;-4.19;69.48;101133.19;1756356;81;21194;-72
2020/12/06 03:30:23;;;;;;;14.50;8.00;;;;;;;-4.21;69.39;101128.41;1731686;81;21697;-71
2020/12/06 03:32:52;;;;;;;12.15;6.97;;;;;;;-4.20;69.31;101135.31;1728958;83;21320;-71
2020/12/06 03:35:19;;;;;;;13.78;7.33;;;;;;;-4.24;69.20;101140.01;1728892;83;21688;-72
2020/12/06 03:37:46;;;;;;;15.35;6.87;;;;;;;-4.23;69.02;101139.16;1729117;83;21334;-72
2020/12/06 03:40:13;;;;;;;16.02;8.00;;;;;;;-4.31;69.03;101140.36;1749467;82;21126;-72
2020/12/06 03:42:40;;;;;;;14.10;7.03;;;;;;;-4.29;68.98;101144.25;1728862;82;21213;-71
2020/12/06 03:45:08;;;;;;;14.20;7.10;;;;;;;-4.31;68.89;101151.98;1721700;83;21615;-71
2020/12/06 03:47:35;;;;;;;14.07;7.87;;;;;;;-4.32;69.06;101152.83;1721739;83;21150;-72
2020/12/06 03:50:03;;;;;;;13.32;7.42;;;;;;;-4.32;68.87;101145.52;1722496;82;21130;-71
2020/12/06 03:52:30;;;;;;;13.65;7.30;;;;;;;-4.37;68.76;101151.90;1721747;83;21304;-71
2020/12/06 03:54:57;;;;;;;13.88;7.37;;;;;;;-4.37;68.57;101147.14;1721226;83;21161;-71
2020/12/06 03:57:25;;;;;;;15.60;7.37;;;;;;;-4.37;68.75;101158.76;1721009;83;21146;-71
2020/12/06 03:59:54;;;;;;;12.03;6.58;;;;;;;-4.42;68.86;101157.83;1731131;82;21650;-71
2020/12/06 04:02:21;;;;;;;13.13;7.30;;;;;;;-4.41;68.74;101147.95;1745871;82;21658;-72
2020/12/06 04:04:48;;;;;;;10.78;6.17;;;;;;;-4.43;68.73;101152.24;1727089;82;21316;-71
2020/12/06 04:07:15;;;;;;;12.30;7.00;;;;;;;-4.47;68.99;101154.77;1721134;83;21154;-71
2020/12/06 04:09:44;;;;;;;14.00;6.75;;;;;;;-4.46;69.14;101155.22;1728925;82;21099;-71
2020/12/06 04:14:07;;;;;;;11.90;7.08;;;;;;;-4.40;68.73;101154.86;1779937;79;22394;-71
2020/12/06 04:16:34;;;;;;;14.07;6.70;;;;;;;-4.53;68.49;101170.60;1753549;82;21182;-70
2020/12/06 04:19:02;;;;;;;15.72;8.03;;;;;;;-4.56;68.50;101162.83;1752166;82;21584;-70
2020/12/06 04:21:29;;;;;;;13.85;7.22;;;;;;;-4.58;68.48;101156.33;1751160;81;21147;-70
2020/12/06 04:23:56;;;;;;;14.13;6.90;;;;;;;-4.66;68.72;101161.81;1751949;82;21171;-71
2020/12/06 04:26:23;;;;;;;12.03;7.22;;;;;;;-4.64;68.86;101158.41;1734427;82;21131;-71
2020/12/06 04:28:50;;;;;;;16.32;7.45;;;;;;;-4.70;68.72;101164.77;1723182;83;21325;-70
2020/12/06 04:31:17;;;;;;;15.63;8.08;;;;;;;-4.67;68.53;101157.48;1746678;82;21622;-70
2020/12/06 04:33:45;;;;;;;16.35;7.15;;;;;;;-4.73;68.38;101149.65;1753094;82;21615;-71
2020/12/06 04:36:12;;;;;;;11.83;7.55;;;;;;;-4.74;68.44;101153.95;1752824;82;21312;-72
2020/12/06 04:38:39;;;;;;;15.38;7.65;;;;;;;-4.75;68.46;101164.27;1752835;81;21317;-71
2020/12/06 04:41:06;;;;;;;13.62;7.33;;;;;;;-4.83;68.64;101165.44;1750593;82;21742;-72
2020/12/06 04:43:35;;;;;;;13.13;7.72;;;;;;;-4.81;68.55;101157.28;1722965;83;21139;-72
2020/12/06 04:46:02;;;;;;;13.25;7.12;;;;;;;-4.87;68.59;101155.48;1723041;83;21186;-71
2020/12/06 04:49:07;;;;;;;11.88;7.20;;;;;;;-4.94;68.64;101154.53;1722949;83;21324;-71
2020/12/06 04:51:42;;;;;;;13.45;7.08;;;;;;;-4.93;68.71;101159.25;1723808;82;21138;-72
2020/12/06 04:54:10;;;;;;;16.37;7.28;;;;;;;-4.95;68.75;101168.27;1722721;83;21206;-71
2020/12/06 04:56:38;;;;;;;13.55;7.60;;;;;;;-5.00;68.82;101157.41;1721610;83;21330;-72
2020/12/06 04:59:06;;;;;;;13.18;7.08;;;;;;;-5.00;68.63;101159.98;1721767;83;21176;-71
2020/12/06 05:01:38;;;;;;;14.68;7.35;;;;;;;-5.02;68.80;101162.98;1736805;82;21543;-71
2020/12/06 05:04:16;;;;;;;14.07;7.00;;;;;;;-5.06;68.65;101162.46;1739055;81;21292;-71
2020/12/06 05:06:44;;;;;;;15.03;7.42;;;;;;;-5.04;68.69;101169.81;1723187;83;21162;-71
2020/12/06 05:09:14;;;;;;;12.68;6.97;;;;;;;-5.09;68.73;101174.89;1723216;83;21309;-71
2020/12/06 05:11:44;;;;;;;15.35;7.25;;;;;;;-5.06;68.43;101170.20;1724962;82;21147;-71
2020/12/06 05:14:11;;;;;;;11.18;5.87;;;;;;;-5.08;68.40;101169.33;1723701;83;21183;-71
2020/12/06 05:16:40;;;;;;;13.72;6.90;;;;;;;-5.10;68.57;101172.75;1723778;83;21128;-72
2020/12/06 05:19:10;;;;;;;11.83;7.03;;;;;;;-5.10;68.32;101174.03;1723934;83;21603;-71
2020/12/06 05:21:41;;;;;;;13.50;6.97;;;;;;;-5.14;68.49;101173.95;1738596;82;21175;-70
2020/12/06 05:24:09;;;;;;;11.60;6.45;;;;;;;-5.13;68.45;101184.31;1753609;82;21167;-71
2020/12/06 05:26:36;;;;;;;11.12;6.50;;;;;;;-5.12;68.51;101175.70;1753114;82;21325;-72
2020/12/06 05:29:04;;;;;;;11.70;6.78;;;;;;;-5.17;68.43;101185.08;1753481;82;21163;-71
2020/12/06 05:31:31;;;;;;;13.83;6.45;;;;;;;-5.14;68.43;101173.55;1742530;82;21134;-71
2020/12/06 05:33:58;;;;;;;10.32;6.25;;;;;;;-5.17;68.36;101179.92;1723522;83;21313;-71
2020/12/06 05:36:25;;;;;;;11.30;6.15;;;;;;;-5.15;68.29;101178.25;1723254;83;21291;-71
2020/12/06 05:38:53;;;;;;;12.35;6.33;;;;;;;-5.15;68.27;101179.54;1723216;83;21179;-71
2020/12/06 05:41:20;;;;;;;14.75;6.97;;;;;;;-5.18;68.05;101171.77;1726053;82;21301;-71
2020/12/06 05:43:47;;;;;;;12.30;6.40;;;;;;;-5.20;68.19;101177.30;1753365;82;21544;-71
2020/12/06 05:46:15;;;;;;;10.40;6.70;;;;;;;-5.17;68.01;101174.77;1753278;82;21183;-71
2020/12/06 05:48:45;;;;;;;11.88;6.40;;;;;;;-5.22;67.92;101182.84;1753174;82;21171;-70
2020/12/06 05:51:14;;;;;;;13.83;6.92;;;;;;;-5.18;67.87;101180.79;1752405;82;21317;-71
2020/12/06 05:53:41;;;;;;;13.18;6.47;;;;;;;-5.20;68.03;101181.61;1725110;82;21154;-71
2020/12/06 05:56:18;;;;;;;11.33;6.72;;;;;;;-5.22;68.19;101188.44;1723537;83;21182;-71
2020/12/06 05:58:47;;;;;;;10.75;6.55;;;;;;;-5.21;68.10;101183.30;1723399;83;21156;-71
2020/12/06 06:01:18;;;;;;;15.85;6.90;;;;;;;-5.22;68.17;101191.02;1723005;83;21320;-71
2020/12/06 06:03:51;;;;;;;15.05;6.97;;;;;;;-5.19;68.07;101189.36;1744761;82;21143;-71
2020/12/06 06:06:28;;;;;;;11.45;6.80;;;;;;;-5.19;67.93;101189.36;1753061;82;21340;-72
2020/12/06 06:08:55;;;;;;;14.05;6.33;;;;;;;-5.18;67.76;101193.69;1753397;82;21478;-71
2020/12/06 06:11:28;;;;;;;14.63;7.50;;;;;;;-5.18;67.36;101191.51;1752252;82;21143;-71
2020/12/06 06:14:00;;;;;;;12.10;6.15;;;;;;;-5.17;67.28;101191.53;1740368;82;21184;-72
2020/12/06 06:16:30;;;;;;;12.85;6.90;;;;;;;-5.16;67.50;101190.69;1738946;82;21156;-72
2020/12/06 06:19:00;;;;;;;11.85;6.20;;;;;;;-5.15;67.39;101208.34;1737862;82;21520;-71
2020/12/06 06:21:33;;;;;;;15.43;6.65;;;;;;;-5.19;67.46;101200.08;1721505;82;21159;-71
2020/12/06 06:24:10;;;;;;;13.53;7.08;;;;;;;-5.16;67.31;101211.33;1733012;82;21762;-71
2020/12/06 06:26:40;;;;;;;13.28;6.67;;;;;;;-5.18;67.40;101213.03;1707996;82;21337;-72
2020/12/06 06:29:14;;;;;;;13.80;7.08;;;;;;;-5.16;67.54;101209.18;1694876;83;21155;-72
2020/12/06 06:31:51;;;;;;;11.97;6.75;;;;;;;-5.13;67.26;101207.93;1694502;83;21178;-71
2020/12/06 06:34:24;;;;;;;13.18;6.58;;;;;;;-5.14;67.51;101210.95;1679899;82;21194;-72
2020/12/06 06:36:52;;;;;;;13.18;6.97;;;;;;;-5.12;67.26;101214.41;1717292;82;22217;-71
2020/12/06 06:39:23;;;;;;;14.30;7.00;;;;;;;-5.10;67.52;101207.58;1709646;83;21151;-72
2020/12/06 06:42:05;;;;;;;15.53;8.15;;;;;;;-5.07;67.61;101227.83;1723528;82;21139;-72
2020/12/06 06:44:32;;;;;;;14.18;8.48;;;;;;;-5.07;67.27;101218.80;1739074;82;21293;-72
2020/12/06 06:47:04;;;;;;;19.40;9.95;;;;;;;-5.08;67.26;101213.19;1739252;82;21120;-72
2020/12/06 06:49:34;;;;;;;14.68;7.72;;;;;;;-5.03;67.55;101211.12;1739431;82;21575;-71
2020/12/06 06:52:03;;;;;;;17.32;9.10;;;;;;;-5.04;67.47;101211.09;1739346;82;21176;-71
2020/12/06 06:54:32;;;;;;;15.00;8.05;;;;;;;-4.98;66.96;101209.92;1715526;82;21197;-72
2020/12/06 06:56:59;;;;;;;16.35;8.18;;;;;;;-4.97;67.18;101210.37;1720519;82;21270;-72
2020/12/06 06:59:45;;;;;;;18.77;9.53;;;;;;;-4.89;67.01;101211.79;1709958;84;21187;-72
2020/12/06 07:02:37;;;;;;;13.48;7.78;;;;;;;-4.88;67.59;101201.48;1707577;84;21215;-71
2020/12/06 07:05:16;;;;;;;14.28;8.10;;;;;;;-4.80;67.40;101201.17;1709783;84;21603;-72
2020/12/06 07:07:50;;;;;;;13.83;7.17;;;;;;;-4.74;67.33;101213.73;1709561;84;21152;-71
2020/12/06 07:10:19;;;;;;;14.68;7.40;;;;;;;-4.71;67.12;101204.77;1709834;83;21463;-72
2020/12/06 07:12:56;;;;;;;14.00;6.78;;;;;;;-4.63;66.86;101213.48;1723938;81;21325;-72
2020/12/06 07:15:25;;;;;;;15.58;7.65;;;;;;;-4.58;66.11;101209.69;1753437;82;21179;-72
2020/12/06 07:17:54;;;;;;;11.80;6.83;;;;;;;-4.55;66.22;101209.31;1753043;82;21177;-72
2020/12/06 07:20:23;;;;;;;12.25;7.00;;;;;;;-4.50;66.00;101221.88;1753124;82;21183;-72
2020/12/06 07:22:50;;;;;;;12.35;6.67;;;;;;;-4.52;66.00;101220.97;1753207;82;21174;-72
2020/12/06 07:25:17;;;;;;;16.15;6.75;;;;;;;-4.46;66.01;101224.09;1737930;82;21150;-72
2020/12/06 07:27:45;;;;;;;10.85;6.00;;;;;;;-4.44;66.04;101228.84;1745374;82;21174;-72
2020/12/06 07:30:16;;;;;;;11.65;6.45;;;;;;;-4.36;66.35;101222.09;1735659;82;21187;-72
2020/12/06 07:32:44;;;;;;;13.58;7.08;;;;;;;-4.32;65.73;101230.75;1741808;82;21131;-72
2020/12/06 07:35:13;;;;;;;13.45;7.20;;;;;;;-4.31;65.53;101221.73;1741795;82;21733;-72
2020/12/06 07:37:40;;;;;;;10.90;6.67;;;;;;;-4.23;65.88;101227.00;1746175;82;21166;-72
2020/12/06 07:40:10;;;;;;;11.48;6.65;;;;;;;-4.23;65.53;101233.45;1753106;82;21337;-72
2020/12/06 07:42:37;;;;;;;14.90;6.85;;;;;;;-4.20;65.61;101232.20;1748116;82;21128;-72
2020/12/06 07:45:06;;;;;;;13.60;6.47;;;;;;;-4.19;64.97;101232.65;1733454;82;22194;-72
2020/12/06 07:47:34;;;;;;;15.08;7.10;;;;;;;-4.15;65.18;101228.40;1731922;82;21683;-73
2020/12/06 07:50:04;;;;;;;12.13;6.95;;;;;;;-4.09;66.16;101230.19;1729396;82;21596;-72
2020/12/06 07:52:33;;;;;;;14.25;6.67;;;;;;;-3.99;65.04;101225.58;1738743;82;21131;-72
2020/12/06 07:55:03;;;;;;;12.73;7.17;;;;;;;-3.92;65.37;101227.84;1740327;82;21575;-72
2020/12/06 07:57:42;;;;;;;12.98;6.70;;;;;;;-3.83;65.03;101226.66;1733629;81;21179;-72
2020/12/06 08:00:18;;;;;;;13.48;6.75;;;;;;;-3.79;64.83;101226.70;1678089;85;21305;-72
2020/12/06 08:02:55;;;;;;;16.07;7.30;;;;;;;-3.73;65.32;101230.21;1731354;82;21561;-72
2020/12/06 08:05:24;;;;;;;14.23;7.22;;;;;;;-3.66;64.55;101221.69;1732692;81;21182;-72
2020/12/06 08:08:04;;;;;;;14.50;7.12;;;;;;;-3.59;64.52;101217.45;1742936;82;21705;-72
2020/12/06 08:10:31;;;;;;;15.38;7.37;;;;;;;-3.52;64.22;101229.61;1727135;82;21544;-72
2020/12/06 08:12:59;;;;;;;18.15;7.42;;;;;;;-3.49;63.62;101231.81;1733609;82;21186;-72
2020/12/06 08:15:27;;;;;;;12.93;7.15;;;;;;;-3.48;63.98;101230.08;1740860;82;21293;-72
2020/12/06 08:17:55;;;;;;;13.05;6.42;;;;;;;-3.38;63.74;101236.23;1732266;82;21607;-72
2020/12/06 08:20:25;;;;;;;11.05;6.47;;;;;;;-3.33;64.03;101231.98;1753241;82;21601;-71
2020/12/06 08:22:54;;;;;;;12.78;6.92;;;;;;;-3.25;64.19;101244.55;1753223;82;21210;-72
2020/12/06 08:25:28;;;;;;;13.32;6.97;;;;;;;-3.19;64.51;101235.56;1729038;82;21174;-73
2020/12/06 08:27:57;;;;;;;15.00;7.08;;;;;;;-3.11;63.48;101236.94;1723485;83;21175;-72
2020/12/06 08:30:27;;;;;;;13.13;6.53;;;;;;;-3.05;63.69;101227.09;1736276;82;21195;-72
2020/12/06 08:33:03;;;;;;;10.95;6.17;;;;;;;-2.96;64.04;101228.45;1752923;82;21321;-71
2020/12/06 08:38:29;;;;;;;12.15;6.40;;;;;;;-2.78;63.42;101216.53;1776415;79;23017;-72
2020/12/06 08:41:11;;;;;;;13.80;7.22;;;;;;;-2.73;63.16;101217.44;1750996;82;21321;-72
2020/12/06 08:43:55;;;;;;;12.50;7.03;;;;;;;-2.72;62.24;101210.11;1733077;82;21159;-72
2020/12/06 08:46:26;;;;;;;;;;;;;;;-2.65;61.31;101222.23;1745624;82;21151;-72
2020/12/06 08:49:00;;;;;;;12.65;6.50;;;;;;;-2.61;62.38;101226.58;1738936;82;20224;-72
2020/12/06 08:51:38;;;;;;;10.20;6.05;;;;;;;-2.59;61.61;101214.95;1742999;82;21131;-71
2020/12/06 08:54:08;;;;;;;15.80;7.05;;;;;;;-2.56;61.58;101215.82;1725451;82;21610;-71
2020/12/06 08:56:38;;;;;;;12.60;6.70;;;;;;;-2.56;61.74;101209.34;1689523;83;21190;-71
2020/12/06 08:59:16;;;;;;;16.62;6.85;;;;;;;-2.50;61.00;101217.16;1696033;83;21199;-72
2020/12/06 09:01:51;;;;;;;14.47;6.47;;;;;;;-2.47;60.55;101215.91;1719750;82;21147;-73
2020/12/06 09:04:19;;;;;;;12.45;6.50;;;;;;;-2.50;60.10;101212.42;1723126;83;21293;-73
2020/12/06 09:06:46;;;;;;;11.20;6.12;;;;;;;-2.45;60.46;101213.77;1728414;82;21149;-73
2020/12/06 09:09:13;;;;;;;13.90;6.67;;;;;;;-2.49;60.84;101216.31;1721222;82;21181;-72
2020/12/06 09:11:41;;;;;;;12.47;6.37;;;;;;;-2.39;61.84;101210.78;1742099;82;21582;-73
2020/12/06 09:14:08;;;;;;;11.83;5.97;;;;;;;-2.29;60.70;101209.09;1752968;82;21753;-72
2020/12/06 09:16:38;;;;;;;12.03;6.60;;;;;;;-2.27;59.64;101212.56;1702301;82;21192;-72
2020/12/06 09:19:06;;;;;;;10.75;6.50;;;;;;;-2.22;59.26;101211.31;1721186;82;21341;-71
2020/12/06 09:21:33;;;;;;;12.65;6.62;;;;;;;-2.24;59.80;101212.57;1727750;82;21142;-73
2020/12/06 09:24:00;;;;;;;11.08;6.28;;;;;;;-2.18;59.05;101212.61;1722491;82;21166;-72
2020/12/06 09:26:27;;;;;;;13.53;7.10;;;;;;;-2.21;58.78;101212.61;1710981;82;21762;-73
2020/12/06 09:28:55;;;;;;;12.20;6.40;;;;;;;-2.18;59.17;101206.13;1723431;82;21322;-73
2020/12/06 09:31:23;;;;;;;14.47;7.10;;;;;;;-2.16;58.10;101204.43;1745710;82;21174;-73
2020/12/06 09:33:50;;;;;;;14.83;7.42;;;;;;;-2.16;58.54;101201.84;1747293;82;21746;-73
2020/12/06 09:36:18;;;;;;;12.15;7.15;;;;;;;-2.08;58.37;101204.91;1755437;81;21336;-73
2020/12/06 09:38:45;;;;;;;15.10;8.63;;;;;;;-2.07;59.66;101202.32;1724398;81;21718;-73
2020/12/06 09:41:12;;;;;;;17.23;10.03;;;;;;;-1.91;59.49;101208.42;1718227;82;21170;-73
2020/12/06 09:43:44;;;;;;;13.78;6.87;;;;;;;-1.90;59.16;101202.39;1696752;82;21297;-73
2020/12/06 09:46:13;;;;;;;12.47;6.33;;;;;;;-1.83;58.17;101200.27;1718941;82;21759;-73
2020/12/06 09:48:41;;;;;;;13.40;7.10;;;;;;;-1.83;58.64;101194.20;1717792;82;21128;-73
2020/12/06 09:51:10;;;;;;;16.90;7.75;;;;;;;-1.76;58.52;101192.08;1707106;82;21162;-73
2020/12/06 09:53:38;;;;;;;12.65;7.28;;;;;;;-1.76;58.11;101188.19;1707841;82;21170;-73
2020/12/06 09:56:05;;;;;;;14.78;6.78;;;;;;;-1.74;57.87;101190.37;1708685;83;21647;-74
2020/12/06 09:58:32;;;;;;;14.00;7.03;;;;;;;-1.74;58.08;101189.48;1698733;82;21117;-73
2020/12/06 10:00:59;;;;;;;14.68;6.40;;;;;;;-1.78;57.43;101183.41;1707427;83;21289;-73
2020/12/06 10:03:27;;;;;;;15.55;7.05;;;;;;;-1.73;58.26;101189.48;1716276;83;21163;-73
2020/12/06 10:05:54;;;;;;;14.70;8.20;;;;;;;-1.70;58.57;101193.81;1712246;82;21191;-73
2020/12/06 10:08:23;;;;;;;13.98;7.00;;;;;;;-1.71;58.36;101183.88;1708151;82;21285;-73
2020/12/06 10:10:52;;;;;;;15.35;7.50;;;;;;;-1.69;57.64;101179.98;1711083;83;21151;-72
2020/12/06 10:13:19;;;;;;;14.85;7.62;;;;;;;-1.71;58.74;101176.54;1705315;83;21135;-72
2020/12/06 10:15:46;;;;;;;14.23;6.33;;;;;;;-1.64;58.30;101178.27;1701892;83;21694;-72
2020/12/06 10:18:13;;;;;;;16.65;7.78;;;;;;;-1.63;57.67;101181.75;1701209;83;21365;-72
2020/12/06 10:20:41;;;;;;;13.00;7.65;;;;;;;-1.62;57.89;101173.97;1688638;84;21321;-72
2020/12/06 10:23:08;;;;;;;13.03;6.37;;;;;;;-1.58;58.07;101170.51;1717621;82;21316;-71
2020/12/06 10:25:35;;;;;;;14.15;7.40;;;;;;;-1.56;57.46;101183.48;1718092;82;21602;-71
2020/12/06 10:28:02;;;;;;;12.30;7.28;;;;;;;-1.53;57.86;101171.39;1725410;82;21623;-73
2020/12/06 10:30:30;;;;;;;13.88;7.25;;;;;;;-1.54;57.63;101177.88;1724565;82;21126;-73
2020/12/06 10:32:57;;;;;;;14.40;7.58;;;;;;;-1.53;57.23;101181.77;1720626;83;21736;-73
2020/12/06 10:35:24;;;;;;;16.85;8.53;;;;;;;-1.57;56.74;101177.44;1700646;83;21178;-73
2020/12/06 10:37:51;;;;;;;16.62;9.25;;;;;;;-1.55;57.68;101178.32;1706659;83;21734;-73
2020/12/06 10:40:18;;;;;;;14.43;7.58;;;;;;;-1.58;57.46;101166.62;1700359;84;21177;-73
2020/12/06 10:42:48;;;;;;;18.40;7.90;;;;;;;-1.55;56.81;101167.94;1695954;84;21271;-73
2020/12/06 10:45:15;;;;;;;14.80;8.18;;;;;;;-1.54;57.62;101164.45;1696620;83;21314;-73
2020/12/06 10:47:44;;;;;;;14.45;7.62;;;;;;;-1.48;57.44;101157.13;1695729;84;21346;-73
2020/12/06 10:50:11;;;;;;;16.42;8.10;;;;;;;-1.50;56.97;101152.36;1696047;84;21751;-73
2020/12/06 10:52:38;;;;;;;15.15;8.03;;;;;;;-1.49;56.96;101165.33;1733487;82;21178;-73
2020/12/06 10:55:06;;;;;;;14.75;7.90;;;;;;;-1.52;57.08;101152.36;1698350;82;21202;-73
2020/12/06 10:57:33;;;;;;;14.78;7.50;;;;;;;-1.55;57.28;101161.45;1675800;82;21186;-74
2020/12/06 11:00:00;;;;;;;13.28;7.20;;;;;;;-1.49;57.46;101164.48;1713973;84;21674;-74
2020/12/06 11:02:28;;;;;;;14.30;8.25;;;;;;;-1.46;57.43;101157.12;1704546;84;21280;-73
2020/12/06 11:04:58;;;;;;;14.20;7.67;;;;;;;-1.45;56.94;101154.98;1681277;85;21188;-74
2020/12/06 11:07:25;;;;;;;13.35;8.10;;;;;;;-1.43;57.27;101148.92;1697400;84;21281;-73
2020/12/06 11:09:52;;;;;;;15.28;7.37;;;;;;;-1.38;57.29;101162.77;1704893;84;21313;-73
2020/12/06 11:12:19;;;;;;;15.40;8.18;;;;;;;-1.42;56.51;101144.17;1704686;84;21734;-73
2020/12/06 11:14:46;;;;;;;12.88;6.92;;;;;;;-1.42;56.48;101148.07;1704645;84;21207;-73
2020/12/06 11:17:14;;;;;;;18.12;8.25;;;;;;;-1.47;56.53;101148.91;1704789;84;21298;-72
2020/12/06 11:19:41;;;;;;;15.35;8.00;;;;;;;-1.52;56.30;101144.58;1697910;84;21327;-73
2020/12/06 11:22:08;;;;;;;15.53;7.80;;;;;;;-1.57;56.44;101135.92;1723140;82;21738;-72
2020/12/06 11:24:36;;;;;;;16.45;7.87;;;;;;;-1.62;56.80;101145.42;1727421;82;21135;-72
2020/12/06 11:27:03;;;;;;;16.15;8.18;;;;;;;-1.60;57.03;101143.68;1744907;82;21183;-72
2020/12/06 11:29:31;;;;;;;17.35;8.35;;;;;;;-1.62;57.07;101132.45;1744517;82;21191;-72